sensor_id;sensor_type;location;lat;lon;timestamp;pressure;altitude;pressure_sealevel;temperature;humidity
11712;BME280;5912;51.034;6.984;2024-01-30T00:00:16;56540.63;;;-142.13;65.08
11712;BME280;5912;51.034;6.984;2024-01-30T00:02:42;56546.63;;;-142.13;63.85
11712;BME280;5912;51.034;6.984;2024-01-30T00:05:08;56560.66;;;-142.13;64.12
11712;BME280;5912;51.034;6.984;2024-01-30T00:07:33;56520.59;;;-142.13;64.34
11712;BME280;5912;51.034;6.984;2024-01-30T00:09:59;56572.69;;;-142.13;63.90
11712;BME280;5912;51.034;6.984;2024-01-30T00:12:24;56568.66;;;-142.13;64.38
11712;BME280;5912;51.034;6.984;2024-01-30T00:14:50;56582.69;;;-142.13;64.05
11712;BME280;5912;51.034;6.984;2024-01-30T00:17:16;56592.72;;;-142.13;64.35
11712;BME280;5912;51.034;6.984;2024-01-30T00:19:41;56556.66;;;-142.13;64.26
11712;BME280;5912;51.034;6.984;2024-01-30T00:22:06;56544.63;;;-142.13;63.71
11712;BME280;5912;51.034;6.984;2024-01-30T00:24:32;56540.63;;;-142.13;64.43
11712;BME280;5912;51.034;6.984;2024-01-30T00:26:58;56580.69;;;-142.13;64.42
11712;BME280;5912;51.034;6.984;2024-01-30T00:29:23;56550.63;;;-142.13;64.91
11712;BME280;5912;51.034;6.984;2024-01-30T00:31:50;56520.59;;;-142.13;64.46
11712;BME280;5912;51.034;6.984;2024-01-30T00:34:16;56568.66;;;-142.13;64.31
11712;BME280;5912;51.034;6.984;2024-01-30T00:36:41;56612.75;;;-142.13;64.29
11712;BME280;5912;51.034;6.984;2024-01-30T00:39:06;56568.66;;;-142.13;64.34
11712;BME280;5912;51.034;6.984;2024-01-30T00:41:34;56556.66;;;-142.13;64.14
11712;BME280;5912;51.034;6.984;2024-01-30T00:43:59;56568.66;;;-142.13;64.79
11712;BME280;5912;51.034;6.984;2024-01-30T00:46:25;56546.63;;;-142.13;64.83
11712;BME280;5912;51.034;6.984;2024-01-30T00:48:50;56580.69;;;-142.13;64.79
11712;BME280;5912;51.034;6.984;2024-01-30T00:51:15;56544.63;;;-142.13;64.44
11712;BME280;5912;51.034;6.984;2024-01-30T00:53:40;56544.63;;;-142.13;64.24
11712;BME280;5912;51.034;6.984;2024-01-30T00:56:07;56560.66;;;-142.13;64.09
11712;BME280;5912;51.034;6.984;2024-01-30T00:58:32;56570.69;;;-142.13;64.07
11712;BME280;5912;51.034;6.984;2024-01-30T01:00:57;56552.66;;;-142.13;64.29
11712;BME280;5912;51.034;6.984;2024-01-30T01:03:22;56572.69;;;-142.13;63.86
11712;BME280;5912;51.034;6.984;2024-01-30T01:05:48;56560.66;;;-142.13;63.82
11712;BME280;5912;51.034;6.984;2024-01-30T01:08:13;56584.69;;;-142.13;64.22
11712;BME280;5912;51.034;6.984;2024-01-30T01:10:40;56564.66;;;-142.13;64.16
11712;BME280;5912;51.034;6.984;2024-01-30T01:13:05;56556.66;;;-142.13;64.26
11712;BME280;5912;51.034;6.984;2024-01-30T01:15:30;56544.63;;;-142.13;64.24
11712;BME280;5912;51.034;6.984;2024-01-30T01:17:57;56564.66;;;-142.13;64.36
11712;BME280;5912;51.034;6.984;2024-01-30T01:20:22;56578.69;;;-142.13;64.21
11712;BME280;5912;51.034;6.984;2024-01-30T01:22:47;56558.66;;;-142.13;63.82
11712;BME280;5912;51.034;6.984;2024-01-30T01:25:13;56574.69;;;-142.13;64.11
11712;BME280;5912;51.034;6.984;2024-01-30T01:27:38;56576.69;;;-142.13;64.19
11712;BME280;5912;51.034;6.984;2024-01-30T01:30:08;56566.66;;;-142.13;64.13
11712;BME280;5912;51.034;6.984;2024-01-30T01:32:34;56580.69;;;-142.13;64.73
11712;BME280;5912;51.034;6.984;2024-01-30T01:35:00;56536.63;;;-142.13;64.31
11712;BME280;5912;51.034;6.984;2024-01-30T01:37:25;56562.66;;;-142.13;64.18
11712;BME280;5912;51.034;6.984;2024-01-30T01:39:52;56564.66;;;-142.13;64.35
11712;BME280;5912;51.034;6.984;2024-01-30T01:42:17;56552.66;;;-142.13;64.47
11712;BME280;5912;51.034;6.984;2024-01-30T01:44:42;56538.63;;;-142.13;63.63
11712;BME280;5912;51.034;6.984;2024-01-30T01:47:08;56536.63;;;-142.13;64.29
11712;BME280;5912;51.034;6.984;2024-01-30T01:49:33;56526.59;;;-142.13;64.32
11712;BME280;5912;51.034;6.984;2024-01-30T01:51:59;56552.66;;;-142.13;63.88
11712;BME280;5912;51.034;6.984;2024-01-30T01:54:25;56540.63;;;-142.13;64.33
11712;BME280;5912;51.034;6.984;2024-01-30T01:56:52;56548.63;;;-142.13;64.05
11712;BME280;5912;51.034;6.984;2024-01-30T01:59:18;56554.66;;;-142.13;63.46
11712;BME280;5912;51.034;6.984;2024-01-30T02:01:45;56528.59;;;-142.13;63.59
11712;BME280;5912;51.034;6.984;2024-01-30T02:04:14;56542.63;;;-142.13;63.74
11712;BME280;5912;51.034;6.984;2024-01-30T02:06:39;56546.63;;;-142.13;63.60
11712;BME280;5912;51.034;6.984;2024-01-30T02:09:05;56552.66;;;-142.13;63.42
11712;BME280;5912;51.034;6.984;2024-01-30T02:11:30;56560.66;;;-142.13;63.53
11712;BME280;5912;51.034;6.984;2024-01-30T02:13:56;56524.59;;;-142.13;63.60
11712;BME280;5912;51.034;6.984;2024-01-30T02:16:21;56544.63;;;-142.13;63.44
11712;BME280;5912;51.034;6.984;2024-01-30T02:18:46;56552.66;;;-142.13;63.60
11712;BME280;5912;51.034;6.984;2024-01-30T02:21:12;56560.66;;;-142.13;63.33
11712;BME280;5912;51.034;6.984;2024-01-30T02:23:39;56544.63;;;-142.13;63.51
11712;BME280;5912;51.034;6.984;2024-01-30T02:26:04;56548.63;;;-142.13;63.34
11712;BME280;5912;51.034;6.984;2024-01-30T02:28:30;56516.59;;;-142.13;63.05
11712;BME280;5912;51.034;6.984;2024-01-30T02:30:55;56558.66;;;-142.13;63.49
11712;BME280;5912;51.034;6.984;2024-01-30T02:33:21;56534.63;;;-142.13;63.81
11712;BME280;5912;51.034;6.984;2024-01-30T02:35:49;56538.63;;;-142.13;63.48
11712;BME280;5912;51.034;6.984;2024-01-30T02:38:15;56548.63;;;-142.13;63.15
11712;BME280;5912;51.034;6.984;2024-01-30T02:40:41;56532.63;;;-142.13;63.37
11712;BME280;5912;51.034;6.984;2024-01-30T02:43:06;56534.63;;;-142.13;63.53
11712;BME280;5912;51.034;6.984;2024-01-30T02:45:31;56552.66;;;-142.13;63.43
11712;BME280;5912;51.034;6.984;2024-01-30T02:47:57;56544.63;;;-142.13;63.61
11712;BME280;5912;51.034;6.984;2024-01-30T02:50:22;56542.63;;;-142.13;63.53
11712;BME280;5912;51.034;6.984;2024-01-30T02:52:47;56496.56;;;-142.13;63.44
11712;BME280;5912;51.034;6.984;2024-01-30T02:55:13;56568.66;;;-142.13;63.21
11712;BME280;5912;51.034;6.984;2024-01-30T02:57:39;56544.63;;;-142.13;63.04
11712;BME280;5912;51.034;6.984;2024-01-30T03:00:05;56544.63;;;-142.13;63.36
11712;BME280;5912;51.034;6.984;2024-01-30T03:02:32;56524.59;;;-142.13;63.24
11712;BME280;5912;51.034;6.984;2024-01-30T03:04:57;56564.66;;;-142.13;63.06
11712;BME280;5912;51.034;6.984;2024-01-30T03:07:23;56558.66;;;-142.13;62.92
11712;BME280;5912;51.034;6.984;2024-01-30T03:09:48;56556.66;;;-142.13;62.99
11712;BME280;5912;51.034;6.984;2024-01-30T03:12:13;56550.63;;;-142.13;62.96
11712;BME280;5912;51.034;6.984;2024-01-30T03:14:38;56632.78;;;-142.13;62.53
11712;BME280;5912;51.034;6.984;2024-01-30T03:17:04;56570.69;;;-142.13;62.71
11712;BME280;5912;51.034;6.984;2024-01-30T03:19:29;56532.63;;;-142.13;62.60
11712;BME280;5912;51.034;6.984;2024-01-30T03:21:54;56542.63;;;-142.13;62.45
11712;BME280;5912;51.034;6.984;2024-01-30T03:24:20;56560.66;;;-142.13;62.74
11712;BME280;5912;51.034;6.984;2024-01-30T03:26:45;56542.63;;;-142.13;62.69
11712;BME280;5912;51.034;6.984;2024-01-30T03:29:11;56542.63;;;-142.13;62.63
11712;BME280;5912;51.034;6.984;2024-01-30T03:31:36;56574.69;;;-142.13;62.78
11712;BME280;5912;51.034;6.984;2024-01-30T03:34:01;56552.66;;;-142.13;62.33
11712;BME280;5912;51.034;6.984;2024-01-30T03:36:27;56552.66;;;-142.13;62.50
11712;BME280;5912;51.034;6.984;2024-01-30T03:38:53;56562.66;;;-142.13;62.57
11712;BME280;5912;51.034;6.984;2024-01-30T03:41:18;56514.59;;;-142.13;62.63
11712;BME280;5912;51.034;6.984;2024-01-30T03:43:44;56546.63;;;-142.13;63.06
11712;BME280;5912;51.034;6.984;2024-01-30T03:46:12;56552.66;;;-142.13;62.59
11712;BME280;5912;51.034;6.984;2024-01-30T03:48:37;56542.63;;;-142.13;62.92
11712;BME280;5912;51.034;6.984;2024-01-30T03:51:03;56564.66;;;-142.13;62.74
11712;BME280;5912;51.034;6.984;2024-01-30T03:53:28;56570.69;;;-142.13;62.92
11712;BME280;5912;51.034;6.984;2024-01-30T03:55:54;56562.66;;;-142.13;62.80
11712;BME280;5912;51.034;6.984;2024-01-30T03:58:19;56548.63;;;-142.13;63.07
11712;BME280;5912;51.034;6.984;2024-01-30T04:00:44;56552.66;;;-142.13;63.06
11712;BME280;5912;51.034;6.984;2024-01-30T04:03:10;56534.63;;;-142.13;62.60
11712;BME280;5912;51.034;6.984;2024-01-30T04:05:35;56518.59;;;-142.13;63.28
11712;BME280;5912;51.034;6.984;2024-01-30T04:08:00;56520.59;;;-142.13;63.19
11712;BME280;5912;51.034;6.984;2024-01-30T04:10:26;56560.66;;;-142.13;63.16
11712;BME280;5912;51.034;6.984;2024-01-30T04:12:51;56548.63;;;-142.13;63.32
11712;BME280;5912;51.034;6.984;2024-01-30T04:15:17;56560.66;;;-142.13;63.27
11712;BME280;5912;51.034;6.984;2024-01-30T04:17:42;56548.63;;;-142.13;63.18
11712;BME280;5912;51.034;6.984;2024-01-30T04:20:09;56538.63;;;-142.13;63.60
11712;BME280;5912;51.034;6.984;2024-01-30T04:22:37;56560.66;;;-142.13;63.01
11712;BME280;5912;51.034;6.984;2024-01-30T04:25:02;56566.66;;;-142.13;63.63
11712;BME280;5912;51.034;6.984;2024-01-30T04:27:28;56536.63;;;-142.13;63.63
11712;BME280;5912;51.034;6.984;2024-01-30T04:29:53;56596.72;;;-142.13;64.03
11712;BME280;5912;51.034;6.984;2024-01-30T04:32:18;56568.66;;;-142.13;63.46
11712;BME280;5912;51.034;6.984;2024-01-30T04:34:44;56540.63;;;-142.13;63.76
11712;BME280;5912;51.034;6.984;2024-01-30T04:37:10;56568.66;;;-142.13;63.50
11712;BME280;5912;51.034;6.984;2024-01-30T04:39:35;56582.69;;;-142.13;63.60
11712;BME280;5912;51.034;6.984;2024-01-30T04:42:02;56578.69;;;-142.13;64.29
11712;BME280;5912;51.034;6.984;2024-01-30T04:44:27;56560.66;;;-142.13;64.49
11712;BME280;5912;51.034;6.984;2024-01-30T04:46:52;56578.69;;;-142.13;64.51
11712;BME280;5912;51.034;6.984;2024-01-30T04:49:18;56548.63;;;-142.13;64.54
11712;BME280;5912;51.034;6.984;2024-01-30T04:51:43;56552.66;;;-142.13;64.46
11712;BME280;5912;51.034;6.984;2024-01-30T04:54:08;56556.66;;;-142.13;64.55
11712;BME280;5912;51.034;6.984;2024-01-30T04:56:34;56562.66;;;-142.13;64.75
11712;BME280;5912;51.034;6.984;2024-01-30T04:59:02;56566.66;;;-142.13;64.71
11712;BME280;5912;51.034;6.984;2024-01-30T05:01:27;56582.69;;;-142.13;64.64
11712;BME280;5912;51.034;6.984;2024-01-30T05:03:53;56598.72;;;-142.13;64.51
11712;BME280;5912;51.034;6.984;2024-01-30T05:06:27;56572.69;;;-142.13;64.90
11712;BME280;5912;51.034;6.984;2024-01-30T05:08:53;56580.69;;;-142.13;65.45
11712;BME280;5912;51.034;6.984;2024-01-30T05:11:18;56584.69;;;-142.13;65.16
11712;BME280;5912;51.034;6.984;2024-01-30T05:13:44;56556.66;;;-142.13;65.28
11712;BME280;5912;51.034;6.984;2024-01-30T05:16:09;56586.69;;;-142.13;65.19
11712;BME280;5912;51.034;6.984;2024-01-30T05:18:35;56586.69;;;-142.13;64.69
11712;BME280;5912;51.034;6.984;2024-01-30T05:21:00;56562.66;;;-142.13;64.84
11712;BME280;5912;51.034;6.984;2024-01-30T05:23:25;56612.75;;;-142.13;64.84
11712;BME280;5912;51.034;6.984;2024-01-30T05:25:51;56572.69;;;-142.13;65.22
11712;BME280;5912;51.034;6.984;2024-01-30T05:28:16;56578.69;;;-142.13;65.59
11712;BME280;5912;51.034;6.984;2024-01-30T05:30:41;56584.69;;;-142.13;65.38
11712;BME280;5912;51.034;6.984;2024-01-30T05:33:07;56562.66;;;-142.13;65.08
11712;BME280;5912;51.034;6.984;2024-01-30T05:35:32;56646.81;;;-142.13;64.69
11712;BME280;5912;51.034;6.984;2024-01-30T05:37:57;56560.66;;;-142.13;65.08
11712;BME280;5912;51.034;6.984;2024-01-30T05:40:22;56552.66;;;-142.13;65.37
11712;BME280;5912;51.034;6.984;2024-01-30T05:42:48;56588.69;;;-142.13;64.74
11712;BME280;5912;51.034;6.984;2024-01-30T05:45:13;56584.69;;;-142.13;65.16
11712;BME280;5912;51.034;6.984;2024-01-30T05:47:39;56564.66;;;-142.13;65.08
11712;BME280;5912;51.034;6.984;2024-01-30T05:50:04;56570.69;;;-142.13;65.43
11712;BME280;5912;51.034;6.984;2024-01-30T05:52:30;56590.72;;;-142.13;65.22
11712;BME280;5912;51.034;6.984;2024-01-30T05:54:55;56594.72;;;-142.13;65.41
11712;BME280;5912;51.034;6.984;2024-01-30T05:57:21;56598.72;;;-142.13;65.44
11712;BME280;5912;51.034;6.984;2024-01-30T05:59:46;56576.69;;;-142.13;65.24
11712;BME280;5912;51.034;6.984;2024-01-30T06:02:13;56568.66;;;-142.13;65.00
11712;BME280;5912;51.034;6.984;2024-01-30T06:04:38;56568.66;;;-142.13;65.74
11712;BME280;5912;51.034;6.984;2024-01-30T06:07:04;56584.69;;;-142.13;65.61
11712;BME280;5912;51.034;6.984;2024-01-30T06:09:31;56590.72;;;-142.13;65.49
11712;BME280;5912;51.034;6.984;2024-01-30T06:11:57;56598.72;;;-142.13;65.37
11712;BME280;5912;51.034;6.984;2024-01-30T06:14:22;56554.66;;;-142.13;65.56
11712;BME280;5912;51.034;6.984;2024-01-30T06:16:48;56556.66;;;-142.13;65.51
11712;BME280;5912;51.034;6.984;2024-01-30T06:19:13;56564.66;;;-142.13;65.23
11712;BME280;5912;51.034;6.984;2024-01-30T06:21:38;56564.66;;;-142.13;65.86
11712;BME280;5912;51.034;6.984;2024-01-30T06:24:04;56590.72;;;-142.13;65.99
11712;BME280;5912;51.034;6.984;2024-01-30T06:26:30;56580.69;;;-142.13;65.41
11712;BME280;5912;51.034;6.984;2024-01-30T06:28:55;56578.69;;;-142.13;65.67
11712;BME280;5912;51.034;6.984;2024-01-30T06:31:20;56572.69;;;-142.13;65.89
11712;BME280;5912;51.034;6.984;2024-01-30T06:33:49;56566.66;;;-142.13;65.41
11712;BME280;5912;51.034;6.984;2024-01-30T06:36:14;56588.69;;;-142.13;65.21
11712;BME280;5912;51.034;6.984;2024-01-30T06:38:41;56598.72;;;-142.13;65.04
11712;BME280;5912;51.034;6.984;2024-01-30T06:41:06;56584.69;;;-142.13;64.99
11712;BME280;5912;51.034;6.984;2024-01-30T06:43:32;56560.66;;;-142.13;64.61
11712;BME280;5912;51.034;6.984;2024-01-30T06:45:57;56568.66;;;-142.13;64.73
11712;BME280;5912;51.034;6.984;2024-01-30T06:48:22;56558.66;;;-142.13;64.83
11712;BME280;5912;51.034;6.984;2024-01-30T06:50:48;56562.66;;;-142.13;64.41
11712;BME280;5912;51.034;6.984;2024-01-30T06:53:14;56554.66;;;-142.13;65.05
11712;BME280;5912;51.034;6.984;2024-01-30T06:55:39;56532.63;;;-142.13;64.52
11712;BME280;5912;51.034;6.984;2024-01-30T06:58:05;56576.69;;;-142.13;64.71
11712;BME280;5912;51.034;6.984;2024-01-30T07:00:30;56574.69;;;-142.13;64.22
11712;BME280;5912;51.034;6.984;2024-01-30T07:02:56;56572.69;;;-142.13;64.65
11712;BME280;5912;51.034;6.984;2024-01-30T07:05:21;56548.63;;;-142.13;64.78
11712;BME280;5912;51.034;6.984;2024-01-30T07:07:47;56560.66;;;-142.13;64.53
11712;BME280;5912;51.034;6.984;2024-01-30T07:10:12;56554.66;;;-142.13;64.71
11712;BME280;5912;51.034;6.984;2024-01-30T07:12:38;56560.66;;;-142.13;64.00
11712;BME280;5912;51.034;6.984;2024-01-30T07:15:04;56570.69;;;-142.13;64.08
11712;BME280;5912;51.034;6.984;2024-01-30T07:17:29;56558.66;;;-142.13;64.16
11712;BME280;5912;51.034;6.984;2024-01-30T07:19:54;56568.66;;;-142.13;64.76
11712;BME280;5912;51.034;6.984;2024-01-30T07:22:20;56592.72;;;-142.13;64.27
11712;BME280;5912;51.034;6.984;2024-01-30T07:24:45;56544.63;;;-142.13;64.31
11712;BME280;5912;51.034;6.984;2024-01-30T07:27:13;56542.63;;;-142.13;64.80
11712;BME280;5912;51.034;6.984;2024-01-30T07:29:38;56542.63;;;-142.13;64.38
11712;BME280;5912;51.034;6.984;2024-01-30T07:32:04;56560.66;;;-142.13;64.45
11712;BME280;5912;51.034;6.984;2024-01-30T07:34:29;56544.63;;;-142.13;64.31
11712;BME280;5912;51.034;6.984;2024-01-30T07:36:54;56628.78;;;-142.13;64.38
11712;BME280;5912;51.034;6.984;2024-01-30T07:39:20;56540.63;;;-142.13;64.05
11712;BME280;5912;51.034;6.984;2024-01-30T07:41:45;56536.63;;;-142.13;63.68
11712;BME280;5912;51.034;6.984;2024-01-30T07:44:11;56566.66;;;-142.13;63.53
11712;BME280;5912;51.034;6.984;2024-01-30T07:46:36;56544.63;;;-142.13;63.32
11712;BME280;5912;51.034;6.984;2024-01-30T07:49:01;56526.59;;;-142.13;63.53
11712;BME280;5912;51.034;6.984;2024-01-30T07:51:27;56510.56;;;-142.13;63.53
11712;BME280;5912;51.034;6.984;2024-01-30T07:53:54;56552.66;;;-142.13;63.58
11712;BME280;5912;51.034;6.984;2024-01-30T07:56:19;56554.66;;;-142.13;63.24
11712;BME280;5912;51.034;6.984;2024-01-30T07:58:44;56534.63;;;-142.13;62.80
11712;BME280;5912;51.034;6.984;2024-01-30T08:01:10;56504.56;;;-142.13;62.50
11712;BME280;5912;51.034;6.984;2024-01-30T08:03:35;56552.66;;;-142.13;62.32
11712;BME280;5912;51.034;6.984;2024-01-30T08:06:02;56484.53;;;-142.13;62.53
11712;BME280;5912;51.034;6.984;2024-01-30T08:08:27;56516.59;;;-142.13;62.06
11712;BME280;5912;51.034;6.984;2024-01-30T08:10:53;56524.59;;;-142.13;62.20
11712;BME280;5912;51.034;6.984;2024-01-30T08:13:18;56532.63;;;-142.13;62.04
11712;BME280;5912;51.034;6.984;2024-01-30T08:15:43;56552.66;;;-142.13;61.91
11712;BME280;5912;51.034;6.984;2024-01-30T08:18:09;56520.59;;;-142.13;62.09
11712;BME280;5912;51.034;6.984;2024-01-30T08:20:34;56528.59;;;-142.13;61.64
11712;BME280;5912;51.034;6.984;2024-01-30T08:23:00;56520.59;;;-142.13;61.25
11712;BME280;5912;51.034;6.984;2024-01-30T08:25:25;56522.59;;;-142.13;61.83
11712;BME280;5912;51.034;6.984;2024-01-30T08:27:51;56528.59;;;-142.13;61.81
11712;BME280;5912;51.034;6.984;2024-01-30T08:30:16;56516.59;;;-142.13;61.60
11712;BME280;5912;51.034;6.984;2024-01-30T08:32:42;56512.59;;;-142.13;61.54
11712;BME280;5912;51.034;6.984;2024-01-30T08:35:07;56528.59;;;-142.13;61.51
11712;BME280;5912;51.034;6.984;2024-01-30T08:37:33;56526.59;;;-142.13;61.48
11712;BME280;5912;51.034;6.984;2024-01-30T08:40:02;56526.59;;;-142.13;61.08
11712;BME280;5912;51.034;6.984;2024-01-30T08:42:29;56532.63;;;-142.13;61.03
11712;BME280;5912;51.034;6.984;2024-01-30T08:44:54;56534.63;;;-142.13;60.79
11712;BME280;5912;51.034;6.984;2024-01-30T08:47:21;56518.59;;;-142.13;60.62
11712;BME280;5912;51.034;6.984;2024-01-30T08:49:46;56522.59;;;-142.13;60.22
11712;BME280;5912;51.034;6.984;2024-01-30T08:52:11;56504.56;;;-142.13;60.24
11712;BME280;5912;51.034;6.984;2024-01-30T08:54:37;56492.53;;;-142.13;59.89
11712;BME280;5912;51.034;6.984;2024-01-30T08:57:02;56496.56;;;-142.13;59.52
11712;BME280;5912;51.034;6.984;2024-01-30T08:59:29;56500.56;;;-142.13;58.92
11712;BME280;5912;51.034;6.984;2024-01-30T09:01:54;56520.59;;;-142.13;58.38
11712;BME280;5912;51.034;6.984;2024-01-30T09:04:21;56482.53;;;-142.13;58.49
11712;BME280;5912;51.034;6.984;2024-01-30T09:06:46;56504.56;;;-142.13;58.03
11712;BME280;5912;51.034;6.984;2024-01-30T09:09:11;56438.47;;;-142.13;58.02
11712;BME280;5912;51.034;6.984;2024-01-30T09:11:37;56502.56;;;-142.13;57.32
11712;BME280;5912;51.034;6.984;2024-01-30T09:14:02;56500.56;;;-142.13;57.16
11712;BME280;5912;51.034;6.984;2024-01-30T09:16:27;56510.56;;;-142.13;57.00
11712;BME280;5912;51.034;6.984;2024-01-30T09:18:53;56462.50;;;-142.13;56.35
11712;BME280;5912;51.034;6.984;2024-01-30T09:21:18;56484.53;;;-142.13;55.80
11712;BME280;5912;51.034;6.984;2024-01-30T09:23:44;56494.56;;;-142.13;55.99
11712;BME280;5912;51.034;6.984;2024-01-30T09:26:09;56526.59;;;-142.13;55.77
11712;BME280;5912;51.034;6.984;2024-01-30T09:28:34;56482.53;;;-142.13;54.61
11712;BME280;5912;51.034;6.984;2024-01-30T09:31:00;56468.50;;;-142.13;54.08
11712;BME280;5912;51.034;6.984;2024-01-30T09:33:25;56480.53;;;-142.13;54.44
11712;BME280;5912;51.034;6.984;2024-01-30T09:35:50;56480.53;;;-142.13;53.74
11712;BME280;5912;51.034;6.984;2024-01-30T09:38:16;56468.50;;;-142.13;53.77
11712;BME280;5912;51.034;6.984;2024-01-30T09:40:41;56436.47;;;-142.13;54.29
11712;BME280;5912;51.034;6.984;2024-01-30T09:43:07;56448.47;;;-142.13;54.13
11712;BME280;5912;51.034;6.984;2024-01-30T09:45:33;56500.56;;;-142.13;53.79
11712;BME280;5912;51.034;6.984;2024-01-30T09:48:00;56468.50;;;-142.13;54.12
11712;BME280;5912;51.034;6.984;2024-01-30T09:50:26;56480.53;;;-142.13;54.01
11712;BME280;5912;51.034;6.984;2024-01-30T09:52:53;56712.91;;;-142.13;53.78
11712;BME280;5912;51.034;6.984;2024-01-30T09:55:20;56480.53;;;-142.13;53.77
11712;BME280;5912;51.034;6.984;2024-01-30T09:57:45;56458.50;;;-142.13;53.54
11712;BME280;5912;51.034;6.984;2024-01-30T10:00:12;56394.38;;;-142.13;53.43
11712;BME280;5912;51.034;6.984;2024-01-30T10:02:38;56452.47;;;-142.13;53.33
11712;BME280;5912;51.034;6.984;2024-01-30T10:05:04;56480.53;;;-142.13;53.27
11712;BME280;5912;51.034;6.984;2024-01-30T10:07:30;56448.47;;;-142.13;52.69
11712;BME280;5912;51.034;6.984;2024-01-30T10:09:56;56432.44;;;-142.13;51.46
11712;BME280;5912;51.034;6.984;2024-01-30T10:12:22;56420.44;;;-142.13;51.21
11712;BME280;5912;51.034;6.984;2024-01-30T10:14:47;56412.41;;;-142.13;50.23
11712;BME280;5912;51.034;6.984;2024-01-30T10:17:12;56416.44;;;-142.13;50.81
11712;BME280;5912;51.034;6.984;2024-01-30T10:19:42;56408.41;;;-142.13;50.20
11712;BME280;5912;51.034;6.984;2024-01-30T10:22:09;56434.44;;;-142.13;49.81
11712;BME280;5912;51.034;6.984;2024-01-30T10:24:34;56428.44;;;-142.13;49.92
11712;BME280;5912;51.034;6.984;2024-01-30T10:27:00;56392.38;;;-142.13;48.26
11712;BME280;5912;51.034;6.984;2024-01-30T10:29:26;56376.34;;;-142.13;47.84
11712;BME280;5912;51.034;6.984;2024-01-30T10:32:19;56388.38;;;-142.13;47.88
11712;BME280;5912;51.034;6.984;2024-01-30T10:34:44;56400.41;;;-142.13;47.54
11712;BME280;5912;51.034;6.984;2024-01-30T10:37:11;56398.41;;;-142.13;48.41
11712;BME280;5912;51.034;6.984;2024-01-30T10:39:43;56414.41;;;-142.13;49.00
11712;BME280;5912;51.034;6.984;2024-01-30T10:42:14;56444.47;;;-142.13;49.77
11712;BME280;5912;51.034;6.984;2024-01-30T10:44:59;56414.41;;;-142.13;50.09
11712;BME280;5912;51.034;6.984;2024-01-30T10:47:28;56424.44;;;-142.13;50.02
11712;BME280;5912;51.034;6.984;2024-01-30T10:49:55;56408.41;;;-142.13;50.38
11712;BME280;5912;51.034;6.984;2024-01-30T10:52:23;56416.44;;;-142.13;50.24
11712;BME280;5912;51.034;6.984;2024-01-30T10:54:50;56386.38;;;-142.13;50.15
11712;BME280;5912;51.034;6.984;2024-01-30T10:57:16;56406.41;;;-142.13;49.57
11712;BME280;5912;51.034;6.984;2024-01-30T10:59:42;56404.41;;;-142.13;49.80
11712;BME280;5912;51.034;6.984;2024-01-30T11:02:09;56428.44;;;-142.13;49.86
11712;BME280;5912;51.034;6.984;2024-01-30T11:04:40;56408.41;;;-142.13;50.03
11712;BME280;5912;51.034;6.984;2024-01-30T11:07:19;56388.38;;;-142.13;49.53
11712;BME280;5912;51.034;6.984;2024-01-30T11:09:52;56460.50;;;-142.13;49.94
11712;BME280;5912;51.034;6.984;2024-01-30T11:12:22;56422.44;;;-142.13;49.77
11712;BME280;5912;51.034;6.984;2024-01-30T11:14:49;56384.38;;;-142.13;49.78
11712;BME280;5912;51.034;6.984;2024-01-30T11:17:14;56388.38;;;-142.13;48.83
11712;BME280;5912;51.034;6.984;2024-01-30T11:19:41;56396.41;;;-142.13;49.17
11712;BME280;5912;51.034;6.984;2024-01-30T11:22:07;56412.41;;;-142.13;48.84
11712;BME280;5912;51.034;6.984;2024-01-30T11:24:39;56658.81;;;-142.13;49.23
11712;BME280;5912;51.034;6.984;2024-01-30T11:27:08;56404.41;;;-142.13;48.71
11712;BME280;5912;51.034;6.984;2024-01-30T11:29:34;56442.47;;;-142.13;49.10
11712;BME280;5912;51.034;6.984;2024-01-30T11:32:00;56422.44;;;-142.13;49.80
11712;BME280;5912;51.034;6.984;2024-01-30T11:34:25;56412.41;;;-142.13;49.65
11712;BME280;5912;51.034;6.984;2024-01-30T11:36:59;56380.38;;;-142.13;49.13
11712;BME280;5912;51.034;6.984;2024-01-30T11:39:29;56408.41;;;-142.13;48.26
11712;BME280;5912;51.034;6.984;2024-01-30T11:41:55;56390.38;;;-142.13;48.00
11712;BME280;5912;51.034;6.984;2024-01-30T11:44:21;56388.38;;;-142.13;47.98
11712;BME280;5912;51.034;6.984;2024-01-30T11:46:50;56366.34;;;-142.13;48.09
11712;BME280;5912;51.034;6.984;2024-01-30T11:49:16;56386.38;;;-142.13;47.95
11712;BME280;5912;51.034;6.984;2024-01-30T11:51:42;56382.38;;;-142.13;47.67
11712;BME280;5912;51.034;6.984;2024-01-30T11:54:08;56386.38;;;-142.13;47.75
11712;BME280;5912;51.034;6.984;2024-01-30T11:56:33;56370.34;;;-142.13;47.45
11712;BME280;5912;51.034;6.984;2024-01-30T11:58:59;56376.34;;;-142.13;46.82
11712;BME280;5912;51.034;6.984;2024-01-30T12:01:26;56368.34;;;-142.13;46.79
11712;BME280;5912;51.034;6.984;2024-01-30T12:03:52;56392.38;;;-142.13;46.65
11712;BME280;5912;51.034;6.984;2024-01-30T12:06:17;56354.31;;;-142.13;46.96
11712;BME280;5912;51.034;6.984;2024-01-30T12:08:42;56348.31;;;-142.13;47.18
11712;BME280;5912;51.034;6.984;2024-01-30T12:11:08;56348.31;;;-142.13;46.52
11712;BME280;5912;51.034;6.984;2024-01-30T12:13:34;56384.38;;;-142.13;46.30
11712;BME280;5912;51.034;6.984;2024-01-30T12:16:00;56388.38;;;-142.13;46.92
11712;BME280;5912;51.034;6.984;2024-01-30T12:18:26;56356.31;;;-142.13;47.07
11712;BME280;5912;51.034;6.984;2024-01-30T12:21:00;56368.34;;;-142.13;47.03
11712;BME280;5912;51.034;6.984;2024-01-30T12:23:29;56378.38;;;-142.13;47.23
11712;BME280;5912;51.034;6.984;2024-01-30T12:25:54;56376.34;;;-142.13;46.88
11712;BME280;5912;51.034;6.984;2024-01-30T12:28:20;56402.41;;;-142.13;47.18
11712;BME280;5912;51.034;6.984;2024-01-30T12:30:46;56352.31;;;-142.13;47.46
11712;BME280;5912;51.034;6.984;2024-01-30T12:33:16;56388.38;;;-142.13;46.95
11712;BME280;5912;51.034;6.984;2024-01-30T12:35:46;56376.34;;;-142.13;46.73
11712;BME280;5912;51.034;6.984;2024-01-30T12:41:34;56364.34;;;-142.13;45.68
11712;BME280;5912;51.034;6.984;2024-01-30T12:44:00;56354.31;;;-142.13;46.51
11712;BME280;5912;51.034;6.984;2024-01-30T12:46:28;56362.34;;;-142.13;46.73